首页
METAR-TAF:

METAR-TAF

机场 :

安纳巴, 阿尔及利亚

纬度: 36-50N, 经度: 007-49E, 海拔: 4米

当前天气观测

该预报发布于18分钟前的23:30 UTC
风速15节,风向西,有时为27节阵风
温度 16°C
湿度 88%
气压 1008 hPa
能見度: 8000
散云层高于1600英尺
多云层高于3000英尺
小雨

METAR: DABB 262330Z 28015G27KT 8000 -RA SCT016 BKN030 16/14 Q1008

时间: 00:48 (23:48 UTC)

预报

该预报发布于48分钟前的23:00 UTC
预报有效从27日的 00点(UTC)到 27日的 24点(UTC)
风速18节,风向西转西北
能見度: 7000
散云层高于1600英尺
少量云层高于2300英尺, 积雨云.
多云层高于2600英尺
小雨
短暂存在
从 27日的 00点(UTC)到 27日的 10点(UTC)
风速20节,风向西转西北,有时为30节阵风
能見度: 2000
散云层高于2000英尺, 积雨云.
阵雨
成为
从 27日的 12点(UTC)到 27日的 14点(UTC)
风速16节,风向西
能见度10公里或以上
散云层高于1600英尺
散云层高于2000英尺
成为
从 27日的 20点(UTC)到 27日的 22点(UTC)
风速8节,风向西转西南

TAF: DABB 262300Z 2700/2724 30018KT 7000 -RA SCT016 FEW023CB BKN026 TEMPO 2700/2710 29020G30KT 2000 SHRA SCT020CB BECMG 2712/2714 28016KT 9999 SCT016 SCT020 BECMG 2720/2722 24008KT

超过4000个机场的气象观测和天气预报(METAR&TAF报告)。

可查询的气象台以黄色和红色小点在地图上表示。

将鼠标移到小点上方,可查看气象台名称。

然后点击查看天气观测和预报。

如需切换地图:点击带黑十字的绿色按钮放大地图;点击带横线的绿色按钮缩小地图;或者点击绿色箭头查看邻近地区的地图。


METAR-TAF: